Data for 11/21/2010

Time Sea-Level Adjusted Pressure Absolute Pressure Temperature Relative Humidity Dew Point   
(mb) (inHg) (mb) (inHg) (C) (F) (%) (C) (F)
00:05 1010 29.83 839 24.78 -17.6 0.4 88 -19.1 -2.4
00:10 1010 29.83 839 24.78 -17.4 0.6 88 -19 -2.2
00:15 1010 29.83 839 24.78 -17.3 0.8 88 -18.9 -2.1
00:20 1010 29.83 839 24.78 -17.4 0.7 88 -18.9 -2.1
00:25 1010 29.83 839 24.78 -17.4 0.6 88 -19 -2.2
00:30 1010 29.83 839 24.78 -17.4 0.7 88 -19 -2.2
00:35 1010 29.83 839 24.78 -17.5 0.6 88 -19.1 -2.3
00:40 1010 29.83 839 24.78 -17.5 0.4 88 -19.1 -2.3
00:45 1010 29.83 839 24.78 -17.5 0.4 88 -19.1 -2.4
00:50 1010 29.83 839 24.78 -17.5 0.4 88 -19.1 -2.4
00:55 1010 29.83 839 24.78 -17.6 0.4 87 -19.3 -2.7
01:00 1010 29.83 839 24.78 -17.6 0.2 87 -19.4 -2.9
01:05 1010 29.83 839 24.78 -17.7 0.1 86 -19.5 -3.1
01:10 1010 29.83 839 24.78 -17.8 -0.1 87 -19.6 -3.2
01:15 1010 29.83 839 24.78 -17.9 -0.3 87 -19.6 -3.4
01:20 1010 29.83 839 24.78 -18 -0.4 87 -19.7 -3.4
01:25 1010 29.83 839 24.78 -18 -0.4 87 -19.7 -3.4
01:30 1010 29.83 839 24.78 -18 -0.3 87 -19.7 -3.4
01:35 1010 29.83 839 24.78 -18 -0.4 87 -19.7 -3.4
01:40 1010 29.83 839 24.78 -18 -0.5 87 -19.7 -3.4
01:45 1010 29.83 839 24.78 -18.1 -0.5 87 -19.7 -3.5
01:50 1010 29.83 839 24.78 -18.1 -0.6 87 -19.8 -3.6
01:55 1010 29.83 839 24.78 -18.1 -0.5 87 -19.7 -3.4
02:00 1010 29.83 839 24.78 -18.1 -0.6 87 -19.8 -3.7
02:05 1010 29.83 839 24.78 -18.3 -0.9 88 -19.9 -3.8
02:10 1010 29.83 839 24.78 -18.3 -0.9 87 -19.9 -3.9
02:15 1010 29.83 839 24.78 -18.2 -0.8 87 -19.9 -3.9
02:20 1010 29.83 840 24.81 -18.3 -0.9 87 -20 -4
02:25 1010 29.83 840 24.81 -18.4 -1 87 -20 -4
02:30 1010 29.83 839 24.78 -18.4 -1 87 -20 -4
02:35 1010 29.83 839 24.78 -18.3 -1 86 -20.1 -4.1
02:40 1010 29.83 839 24.78 -18.4 -1.1 85 -20.3 -4.5
02:45 1010 29.83 839 24.78 -18.6 -1.4 85 -20.4 -4.8
02:50 1010 29.83 839 24.78 -18.7 -1.7 85 -20.6 -5.1
02:55 1010 29.83 839 24.78 -19 -2.2 86 -20.8 -5.4
03:00 1010 29.83 839 24.78 -19.2 -2.5 85 -21.1 -6
03:05 1010 29.83 839 24.78 -19.4 -2.8 86 -21.2 -6.2
03:10 1010 29.83 839 24.78 -19.3 -2.7 86 -21 -5.9
03:15 1010 29.83 839 24.78 -19.2 -2.5 86 -20.9 -5.7
03:20 1010 29.83 839 24.78 -19 -2.1 87 -20.6 -5.1
03:25 1010 29.83 839 24.78 -18.7 -1.6 87 -20.4 -4.7
03:30 1010 29.83 839 24.78 -18.6 -1.4 86 -20.4 -4.7
03:35 1010 29.83 839 24.78 -18.5 -1.3 86 -20.3 -4.5
03:40 1010 29.83 839 24.78 -18.5 -1.2 86 -20.2 -4.4
03:45 1009 29.8 839 24.78 -18.4 -1.1 86 -20.2 -4.3
03:50 1009 29.8 839 24.78 -18.3 -1 86 -20.1 -4.2
03:55 1009 29.8 838 24.75 -18.4 -1.1 86 -20.2 -4.4
04:00 1009 29.8 838 24.75 -18.4 -1.2 86 -20.2 -4.4
04:05 1009 29.8 838 24.75 -18.4 -1.2 86 -20.2 -4.4
04:10 1009 29.8 838 24.75 -18.5 -1.3 86 -20.3 -4.5
04:15 1009 29.8 838 24.75 -18.6 -1.5 86 -20.4 -4.7
04:20 1009 29.8 838 24.75 -18.7 -1.7 86 -20.5 -5
04:25 1009 29.8 838 24.75 -18.8 -1.9 86 -20.6 -5.2
04:30 1009 29.8 838 24.75 -18.8 -1.9 85 -20.7 -5.3
04:35 1009 29.8 838 24.75 -19 -2.1 84 -21 -5.8
04:40 1009 29.8 838 24.75 -19.5 -3.2 85 -21.4 -6.6
04:45 1009 29.8 838 24.75 -19.8 -3.6 85 -21.8 -7.2
04:50 1009 29.8 838 24.75 -19.9 -3.8 86 -21.6 -6.9
04:55 1009 29.8 838 24.75 -19.8 -3.6 86 -21.6 -6.9
05:00 1009 29.8 838 24.75 -19.8 -3.6 86 -21.5 -6.8
05:05 1009 29.8 838 24.75 -19.6 -3.3 88 -21.2 -6.2
05:10 1009 29.8 838 24.75 -19.4 -3 87 -21.1 -6
05:15 1009 29.8 838 24.75 -19.4 -2.8 86 -21.1 -6
05:20 1009 29.8 838 24.75 -19.3 -2.7 87 -21 -5.8
05:25 1009 29.8 838 24.75 -19.2 -2.5 86 -21 -5.8
05:30 1009 29.8 838 24.75 -19.2 -2.6 86 -21 -5.9
05:35 1009 29.8 838 24.75 -19.3 -2.7 85 -21.2 -6.1
05:40 1008 29.77 838 24.75 -19.4 -3 85 -21.4 -6.4
05:45 1008 29.77 838 24.75 -19.5 -3.2 85 -21.4 -6.5
05:50 1008 29.77 838 24.75 -19.6 -3.2 85 -21.4 -6.5
05:55 1008 29.77 838 24.75 -19.6 -3.2 85 -21.5 -6.6
06:00 1009 29.8 838 24.75 -19.5 -3.1 85 -21.4 -6.5
06:05 1009 29.8 838 24.75 -19.4 -3 85 -21.3 -6.4
06:10 1009 29.8 838 24.75 -19.4 -2.9 85 -21.3 -6.3
06:15 1008 29.77 838 24.75 -19.3 -2.7 85 -21.3 -6.3
06:20 1008 29.77 838 24.75 -19.3 -2.8 85 -21.3 -6.3
06:25 1008 29.77 838 24.75 -19.3 -2.8 85 -21.3 -6.3
06:30 1008 29.77 838 24.75 -19.4 -2.8 85 -21.3 -6.3
06:35 1008 29.77 838 24.75 -19.5 -3 84 -21.5 -6.7
06:40 1008 29.77 838 24.75 -19.6 -3.2 85 -21.5 -6.8
06:45 1009 29.8 838 24.75 -19.6 -3.3 84 -21.7 -7
06:50 1008 29.77 838 24.75 -19.9 -3.7 84 -21.9 -7.5
06:55 1008 29.77 838 24.75 -20 -4 84 -22.1 -7.7
07:00 1008 29.77 838 24.75 -20.2 -4.3 84 -22.2 -8
07:05 1008 29.77 838 24.75 -20.3 -4.5 84 -22.4 -8.3
07:10 1008 29.77 838 24.75 -20.4 -4.7 84 -22.5 -8.5
07:15 1008 29.77 838 24.75 -20.5 -4.8 84 -22.5 -8.5
07:20 1008 29.77 838 24.75 -20.4 -4.8 84 -22.4 -8.4
07:25 1008 29.77 838 24.75 -20.3 -4.5 85 -22.2 -8
07:30 1008 29.77 838 24.75 -20.1 -4.2 86 -21.9 -7.5
07:35 1008 29.77 838 24.75 -19.9 -3.8 85 -21.9 -7.3
07:40 1008 29.77 838 24.75 -19.9 -3.8 85 -21.8 -7.3
07:45 1009 29.8 838 24.75 -19.7 -3.4 85 -21.5 -6.8
07:50 1009 29.8 838 24.75 -19.6 -3.3 85 -21.6 -6.9
07:55 1009 29.8 838 24.75 -19.7 -3.4 85 -21.6 -7
08:00 1009 29.8 838 24.75 -19.7 -3.5 84 -21.7 -7.1
08:05 1009 29.8 838 24.75 -19.8 -3.6 85 -21.7 -7.1
08:10 1008 29.77 838 24.75 -19.7 -3.5 84 -21.7 -7.1
08:15 1008 29.77 838 24.75 -19.7 -3.5 84 -21.8 -7.2
08:20 1008 29.77 838 24.75 -19.9 -3.7 84 -21.9 -7.4
08:25 1008 29.77 838 24.75 -19.8 -3.7 85 -21.8 -7.2
08:30 1008 29.77 838 24.75 -19.7 -3.5 85 -21.7 -7
08:35 1008 29.77 837 24.72 -19.5 -3 86 -21.3 -6.3
08:40 1008 29.77 837 24.72 -19 -2.1 85 -20.8 -5.5
08:45 1008 29.77 837 24.72 -18.7 -1.7 85 -20.7 -5.2
08:50 1008 29.77 837 24.72 -19 -2.2 84 -21.1 -6
08:55 1008 29.77 837 24.72 -19 -2.2 85 -20.9 -5.6
09:00 1008 29.77 837 24.72 -18.4 -1.2 86 -20.2 -4.3
09:05 1008 29.77 837 24.72 -18 -0.4 86 -19.9 -3.8
09:10 1008 29.77 837 24.72 -17.7 0.2 86 -19.4 -3
09:15 1008 29.77 837 24.72 -17.1 1.2 86 -18.9 -2
09:20 1008 29.77 837 24.72 -16.7 1.9 82 -19.1 -2.3
09:25 1008 29.77 837 24.72 -17.4 0.6 85 -19.4 -3
09:30 1008 29.77 837 24.72 -17.3 0.9 86 -19 -2.2
09:35 1008 29.77 837 24.72 -16.9 1.7 87 -18.5 -1.4
09:40 1008 29.77 837 24.72 -16.6 2.2 83 -18.8 -1.9
09:45 1008 29.77 837 24.72 -17.1 1.2 84 -19.2 -2.6
09:50 1008 29.77 837 24.72 -17 1.4 85 -19 -2.1
09:55 1008 29.77 837 24.72 -16.9 1.6 81 -19.4 -3
10:00 1008 29.77 837 24.72 -17.6 0.4 83 -19.8 -3.6
10:05 1008 29.77 837 24.72 -17.6 0.4 84 -19.6 -3.3
10:10 1008 29.77 837 24.72 -17.2 1 86 -19 -2.2
10:15 1008 29.77 837 24.72 -16.3 2.7 85 -18.3 -0.9
10:20 1008 29.77 837 24.72 -15.8 3.5 85 -17.8 -0
10:25 1008 29.77 837 24.72 -15.6 4 82 -17.9 -0.3
10:30 1007 29.74 837 24.72 -15.6 4 83 -17.8 -0.1
10:35 1007 29.74 837 24.72 -16.2 2.8 84 -18.3 -1
10:40 1007 29.74 837 24.72 -16 3.2 79 -18.9 -2
10:45 1007 29.74 837 24.72 -16.4 2.4 82 -18.9 -2
10:50 1007 29.74 837 24.72 -15.9 3.5 83 -18.1 -0.6
10:55 1007 29.74 837 24.72 -14.9 5.2 79 -17.8 0
11:00 1007 29.74 837 24.72 -15 4.9 79 -18 -0.4
11:05 1007 29.74 837 24.72 -15 5 75 -18.5 -1.3
11:10 1007 29.74 836 24.69 -15 5.1 79 -17.9 -0.2
11:15 1008 29.77 837 24.72 -15.4 4.3 77 -18.5 -1.3
11:20 1007 29.74 837 24.72 -15.6 4 77 -18.7 -1.7
11:25 1007 29.74 836 24.69 -15.4 4.3 77 -18.6 -1.5
11:30 1007 29.74 836 24.69 -15.6 3.8 79 -18.6 -1.4
11:35 1007 29.74 837 24.72 -16.1 3.1 79 -18.9 -2
11:40 1007 29.74 836 24.69 -16.4 2.4 80 -19.1 -2.4
11:45 1007 29.74 836 24.69 -16.2 2.9 78 -19.2 -2.5
11:50 1007 29.74 836 24.69 -16.3 2.6 80 -19.1 -2.4
11:55 1007 29.74 836 24.69 -16.7 2 79 -19.5 -3.1
12:00 1007 29.74 836 24.69 -16.8 1.8 82 -19.1 -2.4
12:05 1007 29.74 836 24.69 -16.4 2.5 79 -19.2 -2.5
12:10 1007 29.74 836 24.69 -16.7 1.9 83 -18.9 -2.1
12:15 1007 29.74 836 24.69 -16.4 2.4 81 -19 -2.2
12:20 1006 29.71 836 24.69 -16.3 2.8 82 -18.7 -1.6
12:25 1006 29.71 836 24.69 -15.4 4.3 77 -18.6 -1.4
12:30 1006 29.71 835 24.66 -15.1 4.8 77 -18.2 -0.8
12:35 1006 29.71 835 24.66 -15.2 4.6 77 -18.4 -1
12:40 1006 29.71 835 24.66 -15.5 4 76 -18.8 -1.9
12:45 1006 29.71 835 24.66 -15.9 3.4 76 -19.3 -2.7
12:50 1006 29.71 835 24.66 -16.4 2.4 82 -18.9 -2
12:55 1006 29.71 835 24.66 -16.1 3 79 -19 -2.2
13:00 1006 29.71 835 24.66 -15.6 4 78 -18.5 -1.4
13:05 1006 29.71 835 24.66 -14.3 6.3 73 -18.1 -0.5
13:10 1006 29.71 835 24.66 -13.9 7 71 -18.2 -0.7
13:15 1006 29.71 835 24.66 -14.2 6.4 73 -18.1 -0.6
13:20 1005 29.68 835 24.66 -13.5 7.6 70 -17.9 -0.2
13:25 1005 29.68 835 24.66 -12.6 9.3 66 -17.6 0.3
13:30 1005 29.68 834 24.63 -13 8.6 69 -17.6 0.3
13:35 1005 29.68 834 24.63 -13.4 8 69 -17.9 -0.3
13:40 1005 29.68 834 24.63 -13.7 7.4 71 -17.9 -0.2
13:45 1005 29.68 834 24.63 -13.9 7 70 -18.2 -0.8
13:50 1005 29.68 834 24.63 -13.8 7.1 71 -18.1 -0.5
13:55 1005 29.68 834 24.63 -13.7 7.4 69 -18.2 -0.8
14:00 1005 29.68 834 24.63 -13.8 7.2 69 -18.3 -0.9
14:05 1005 29.68 834 24.63 -13.6 7.6 68 -18.3 -0.9
14:10 1005 29.68 834 24.63 -13.5 7.8 68 -18.2 -0.8
14:15 1005 29.68 834 24.63 -14 6.8 70 -18.3 -1
14:20 1005 29.68 834 24.63 -14.7 5.5 72 -18.8 -1.8
14:25 1005 29.68 834 24.63 -15.1 4.8 75 -18.6 -1.5
14:30 1005 29.68 834 24.63 -15.1 4.8 75 -18.6 -1.4
14:35 1005 29.68 834 24.63 -15 5.1 73 -18.7 -1.7
14:40 1005 29.68 834 24.63 -14.6 5.7 71 -18.7 -1.7
14:45 1005 29.68 834 24.63 -14.4 6.1 70 -18.7 -1.7
14:50 1005 29.68 834 24.63 -14.6 5.8 71 -18.8 -1.8
14:55 1005 29.68 834 24.63 -14.7 5.5 71 -18.9 -2.1
15:00 1005 29.68 834 24.63 -14.7 5.6 71 -18.9 -2
15:05 1004 29.65 834 24.63 -14.9 5.3 72 -18.9 -2
15:10 1004 29.65 834 24.63 -15.8 3.7 74 -19.3 -2.8
15:15 1004 29.65 834 24.63 -15.4 4.2 72 -19.5 -3
15:20 1004 29.65 834 24.63 -16.1 3.1 77 -19.3 -2.7
15:25 1004 29.65 834 24.63 -16.1 3 77 -19.3 -2.7
15:30 1004 29.65 833 24.6 -16 3.3 75 -19.4 -2.9
15:35 1004 29.65 833 24.6 -16.1 3 77 -19.3 -2.7
15:40 1004 29.65 833 24.6 -16 3.2 77 -19.1 -2.4
15:45 1004 29.65 833 24.6 -15.9 3.4 77 -19 -2.3
15:50 1004 29.65 833 24.6 -15.7 3.7 77 -19 -2.2
15:55 1004 29.65 833 24.6 -15.8 3.6 77 -19 -2.2
16:00 1004 29.65 833 24.6 -15.9 3.4 77 -19.1 -2.4
16:05 1004 29.65 833 24.6 -16.1 3 78 -19 -2.2
16:10 1004 29.65 833 24.6 -16.1 3 79 -19 -2.2
16:15 1004 29.65 833 24.6 -16.2 2.9 79 -19 -2.1
16:20 1004 29.65 833 24.6 -16.1 2.9 79 -19 -2.2
16:25 1004 29.65 833 24.6 -16.3 2.6 80 -19.1 -2.4
16:30 1004 29.65 833 24.6 -16.4 2.4 79 -19.3 -2.8
16:35 1004 29.65 834 24.63 -16.3 2.6 78 -19.4 -2.9
16:40 1004 29.65 834 24.63 -16.4 2.4 77 -19.6 -3.2
16:45 1004 29.65 834 24.63 -16.6 2.1 78 -19.5 -3.2
16:50 1004 29.65 834 24.63 -16.6 2.1 79 -19.5 -3
16:55 1004 29.65 834 24.63 -16.5 2.3 78 -19.4 -2.9
17:00 1004 29.65 834 24.63 -16.7 2 80 -19.3 -2.8
17:05 1004 29.65 834 24.63 -16.8 1.8 81 -19.3 -2.8
17:10 1004 29.65 834 24.63 -16.8 1.8 81 -19.3 -2.8
17:15 1004 29.65 834 24.63 -16.8 1.8 81 -19.3 -2.8
17:20 1004 29.65 834 24.63 -16.9 1.5 82 -19.3 -2.7
17:25 1004 29.65 834 24.63 -16.9 1.6 81 -19.4 -2.9
17:30 1004 29.65 834 24.63 -17.1 1.3 82 -19.4 -3
17:35 1004 29.65 834 24.63 -17 1.4 82 -19.4 -2.8
17:40 1004 29.65 834 24.63 -16.9 1.6 81 -19.4 -2.9
17:45 1004 29.65 834 24.63 -16.9 1.6 81 -19.4 -3
17:50 1004 29.65 834 24.63 -16.7 1.9 81 -19.3 -2.7
17:55 1004 29.65 834 24.63 -16.6 2.2 81 -19.2 -2.5
18:00 1004 29.65 834 24.63 -16.5 2.2 81 -19.1 -2.3
18:05 1004 29.65 834 24.63 -16.5 2.4 80 -19.1 -2.4
18:10 1004 29.65 834 24.63 -16.4 2.5 80 -19.1 -2.4
18:15 1004 29.65 834 24.63 -16.3 2.6 81 -18.9 -2
18:20 1004 29.65 834 24.63 -16.4 2.5 81 -19 -2.1
18:25 1004 29.65 834 24.63 -16.4 2.4 80 -19.1 -2.4
18:30 1004 29.65 834 24.63 -16.8 1.8 83 -19 -2.2
18:35 1005 29.68 834 24.63 -16.7 1.9 82 -19 -2.3
18:40 1005 29.68 834 24.63 -16.9 1.7 83 -19.1 -2.4
18:45 1005 29.68 834 24.63 -16.8 1.7 83 -19.1 -2.4
18:50 1005 29.68 834 24.63 -16.8 1.8 83 -19 -2.2
18:55 1005 29.68 834 24.63 -16.8 1.8 82 -19.1 -2.4
19:00 1005 29.68 834 24.63 -16.7 2 82 -19 -2.2
19:05 1005 29.68 834 24.63 -16.7 1.9 81 -19.3 -2.7
19:10 1005 29.68 834 24.63 -17 1.5 83 -19.2 -2.6
19:15 1005 29.68 834 24.63 -17 1.5 83 -19.2 -2.6
19:20 1005 29.68 834 24.63 -17 1.4 83 -19.2 -2.5
19:25 1005 29.68 834 24.63 -16.9 1.6 83 -19.1 -2.4
19:30 1005 29.68 834 24.63 -16.9 1.6 84 -19 -2.2
19:35 1005 29.68 834 24.63 -16.7 2 82 -19 -2.2
19:40 1005 29.68 834 24.63 -16.6 2.2 82 -19 -2.1
19:45 1005 29.68 834 24.63 -16.6 2.1 82 -19 -2.2
19:50 1005 29.68 834 24.63 -16.5 2.3 82 -19 -2.2
19:55 1005 29.68 834 24.63 -16.5 2.3 83 -18.8 -1.8
20:00 1005 29.68 834 24.63 -16.5 2.3 82 -18.9 -2
20:05 1005 29.68 834 24.63 -16.4 2.4 82 -18.8 -1.9
20:10 1005 29.68 834 24.63 -16.2 2.8 81 -18.8 -1.8
20:15 1005 29.68 834 24.63 -16.1 3 80 -18.8 -1.8
20:20 1005 29.68 834 24.63 -16.2 2.8 81 -18.7 -1.7
20:25 1005 29.68 834 24.63 -16.2 2.9 81 -18.7 -1.7
20:30 1005 29.68 834 24.63 -16.2 2.9 81 -18.6 -1.6
20:35 1005 29.68 834 24.63 -16.2 2.9 81 -18.7 -1.7
20:40 1005 29.68 834 24.63 -16.3 2.7 82 -18.7 -1.6
20:45 1005 29.68 835 24.66 -16.3 2.7 82 -18.7 -1.6
20:50 1005 29.68 835 24.66 -16.4 2.5 82 -18.8 -1.8
20:55 1005 29.68 835 24.66 -16.4 2.6 83 -18.7 -1.6
21:00 1005 29.68 835 24.66 -16.2 2.8 83 -18.5 -1.4
21:05 1005 29.68 835 24.66 -16.1 3 81 -18.7 -1.7
21:10 1005 29.68 835 24.66 -16.6 2.2 84 -18.7 -1.6
21:15 1005 29.68 835 24.66 -16.8 1.8 85 -18.7 -1.7
21:20 1005 29.68 835 24.66 -16.6 2 84 -18.7 -1.7
21:25 1005 29.68 835 24.66 -16.6 2.2 85 -18.6 -1.4
21:30 1005 29.68 835 24.66 -16.5 2.4 86 -18.4 -1
21:35 1005 29.68 835 24.66 -16.2 2.9 84 -18.2 -0.8
21:40 1005 29.68 835 24.66 -16.1 3 84 -18.3 -0.9
21:45 1006 29.71 835 24.66 -16.2 2.9 84 -18.2 -0.8
21:50 1006 29.71 835 24.66 -15.9 3.3 84 -18 -0.4
21:55 1006 29.71 835 24.66 -15.9 3.5 84 -18 -0.5
22:00 1006 29.71 835 24.66 -15.8 3.5 83 -18.1 -0.7
22:05 1006 29.71 835 24.66 -15.9 3.5 84 -18 -0.5
22:10 1006 29.71 835 24.66 -15.8 3.6 84 -18 -0.4
22:15 1006 29.71 835 24.66 -15.7 3.7 83 -18 -0.5
22:20 1006 29.71 835 24.66 -15.7 3.7 83 -18 -0.4
22:25 1006 29.71 835 24.66 -15.8 3.6 82 -18.1 -0.6
22:30 1006 29.71 835 24.66 -16 3.2 83 -18.2 -0.8
22:35 1006 29.71 835 24.66 -16 3.2 84 -18.2 -0.7
22:40 1006 29.71 835 24.66 -16 3.3 83 -18.3 -0.9
22:45 1006 29.71 835 24.66 -16.1 3.1 83 -18.3 -1
22:50 1006 29.71 835 24.66 -16.4 2.5 84 -18.6 -1.4
22:55 1006 29.71 835 24.66 -16.7 1.9 86 -18.6 -1.4
23:00 1006 29.71 835 24.66 -16.4 2.5 85 -18.3 -1
23:05 1006 29.71 835 24.66 -16.2 2.9 84 -18.3 -0.9
23:10 1006 29.71 835 24.66 -16.3 2.8 84 -18.4 -1.1
23:15 1006 29.71 835 24.66 -16.4 2.5 86 -18.3 -0.9
23:20 1006 29.71 835 24.66 -16.4 2.5 85 -18.4 -1.1
23:25 1006 29.71 835 24.66 -16.5 2.3 86 -18.3 -1
23:30 1006 29.71 835 24.66 -16.3 2.6 85 -18.3 -0.9
23:35 1006 29.71 835 24.66 -16.2 2.8 85 -18.2 -0.8
23:40 1006 29.71 835 24.66 -16.2 2.8 85 -18.1 -0.6
23:45 1006 29.71 835 24.66 -16 3.3 85 -18 -0.3
23:50 1006 29.71 835 24.66 -15.9 3.4 84 -18.1 -0.5
23:55 1006 29.71 835 24.66 -16 3.2 85 -18 -0.3
24:00 1006 29.71 835 24.66 -15.8 3.5 84 -17.9 -0.2